createdAt,value
2023-05-18T00:00:41.510Z,4.10
2023-05-18T00:03:08.399Z,4.10
2023-05-18T00:05:35.243Z,4.10
2023-05-18T00:08:03.780Z,4.10
2023-05-18T00:10:30.615Z,4.00
2023-05-18T00:12:57.402Z,4.00
2023-05-18T00:15:24.273Z,3.90
2023-05-18T00:17:51.061Z,3.90
2023-05-18T00:20:18.017Z,3.90
2023-05-18T00:22:44.928Z,3.90
2023-05-18T00:25:13.076Z,3.90
2023-05-18T00:27:39.862Z,3.90
2023-05-18T00:30:14.799Z,3.80
2023-05-18T00:32:41.678Z,3.80
2023-05-18T00:35:08.478Z,3.70
2023-05-18T00:37:35.324Z,3.70
2023-05-18T00:40:02.120Z,3.70
2023-05-18T00:42:30.222Z,3.70
2023-05-18T00:44:56.974Z,3.70
2023-05-18T00:47:33.017Z,3.70
2023-05-18T00:50:03.141Z,3.60
2023-05-18T00:52:33.271Z,3.60
2023-05-18T00:55:00.222Z,3.50
2023-05-18T00:57:27.164Z,3.50
2023-05-18T00:59:58.248Z,3.40
2023-05-18T01:02:25.188Z,3.40
2023-05-18T01:04:54.773Z,3.40
2023-05-18T01:07:24.355Z,3.40
2023-05-18T01:09:53.756Z,3.40
2023-05-18T01:12:25.730Z,3.30
2023-05-18T01:14:59.787Z,3.30
2023-05-18T01:17:35.496Z,3.20
2023-05-18T01:20:16.242Z,3.20
2023-05-18T01:22:58.767Z,3.20
2023-05-18T01:25:33.705Z,3.20
2023-05-18T01:28:07.047Z,3.10
2023-05-18T01:30:34.315Z,3.10
2023-05-18T01:33:01.170Z,3.20
2023-05-18T01:35:28.246Z,3.20
2023-05-18T01:37:55.184Z,3.10
2023-05-18T01:40:28.801Z,3.10
2023-05-18T01:43:03.596Z,3.10
2023-05-18T01:45:34.081Z,3.10
2023-05-18T01:48:02.461Z,3.10
2023-05-18T01:50:35.724Z,3.10
2023-05-18T01:53:06.713Z,3.00
2023-05-18T01:55:35.339Z,3.00
2023-05-18T01:58:06.422Z,2.90
2023-05-18T02:00:36.569Z,2.90
2023-05-18T02:03:06.477Z,2.90
2023-05-18T02:05:33.314Z,2.90
2023-05-18T02:08:02.732Z,2.90
2023-05-18T02:10:29.557Z,2.90
2023-05-18T02:12:56.443Z,2.90
2023-05-18T02:15:24.534Z,2.80
2023-05-18T02:17:51.466Z,2.80
2023-05-18T02:20:18.292Z,2.80
2023-05-18T02:22:45.200Z,2.80
2023-05-18T02:25:12.128Z,2.80
2023-05-18T02:27:38.995Z,2.80
2023-05-18T02:30:06.844Z,2.70
2023-05-18T02:32:35.166Z,2.70
2023-05-18T02:35:02.009Z,2.70
2023-05-18T02:37:28.779Z,2.60
2023-05-18T02:39:55.567Z,2.70
2023-05-18T02:42:22.390Z,2.70
2023-05-18T02:44:49.163Z,2.70
2023-05-18T02:47:17.681Z,2.70
2023-05-18T02:49:45.774Z,2.80
2023-05-18T02:52:12.540Z,2.80
2023-05-18T02:54:41.755Z,2.80
2023-05-18T02:57:08.524Z,2.80
2023-05-18T02:59:36.416Z,2.80
2023-05-18T03:02:03.314Z,2.80
2023-05-18T03:04:30.451Z,2.80
2023-05-18T03:07:01.519Z,2.80
2023-05-18T03:09:28.343Z,2.80
2023-05-18T03:11:55.147Z,2.80
2023-05-18T03:14:26.255Z,2.80
2023-05-18T03:16:53.392Z,2.80
2023-05-18T03:19:23.196Z,2.70
2023-05-18T03:21:50.314Z,2.70
2023-05-18T03:24:27.529Z,2.60
2023-05-18T03:26:54.411Z,2.60
2023-05-18T03:29:21.212Z,2.60
2023-05-18T03:31:48.091Z,2.50
2023-05-18T03:34:14.957Z,2.50
2023-05-18T03:36:42.002Z,2.50
2023-05-18T03:39:09.062Z,2.50
2023-05-18T03:41:37.246Z,2.40
2023-05-18T03:44:06.828Z,2.40
2023-05-18T03:46:33.766Z,2.40
2023-05-18T03:49:00.635Z,2.40
2023-05-18T03:51:27.598Z,2.50
2023-05-18T03:53:55.510Z,2.50
2023-05-18T03:56:22.296Z,2.50
2023-05-18T03:58:50.477Z,2.60
2023-05-18T04:01:17.701Z,2.60
2023-05-18T04:03:46.087Z,2.60
2023-05-18T04:06:12.971Z,2.60
2023-05-18T04:08:39.776Z,2.70
2023-05-18T04:11:06.520Z,2.70
2023-05-18T04:13:33.305Z,2.80
2023-05-18T04:16:01.410Z,2.90
2023-05-18T04:18:28.174Z,2.90
2023-05-18T04:20:54.942Z,3.00
2023-05-18T04:23:21.734Z,3.00
2023-05-18T04:25:48.478Z,3.00
2023-05-18T04:28:16.444Z,3.10
2023-05-18T04:30:43.213Z,3.10
2023-05-18T04:33:11.428Z,3.20
2023-05-18T04:35:38.294Z,3.40
2023-05-18T04:38:07.863Z,3.70
2023-05-18T04:40:34.705Z,4.10
2023-05-18T04:43:01.508Z,4.50
2023-05-18T04:45:28.841Z,4.90
2023-05-18T04:47:55.835Z,5.10
2023-05-18T04:50:25.872Z,5.30
2023-05-18T04:52:53.091Z,5.50
2023-05-18T04:55:21.069Z,5.60
2023-05-18T04:57:47.893Z,5.40
2023-05-18T05:00:15.561Z,5.20
2023-05-18T05:02:42.474Z,5.40
2023-05-18T05:05:09.643Z,5.80
2023-05-18T05:07:37.791Z,6.10
2023-05-18T05:10:12.828Z,6.50
2023-05-18T05:12:43.754Z,6.70
2023-05-18T05:15:10.740Z,6.60
2023-05-18T05:17:39.097Z,6.70
2023-05-18T05:20:13.818Z,6.60
2023-05-18T05:22:42.186Z,6.70
2023-05-18T05:25:10.782Z,6.70
2023-05-18T05:27:37.646Z,6.50
2023-05-18T05:30:05.180Z,6.60
2023-05-18T05:32:32.021Z,6.80
2023-05-18T05:34:58.793Z,7.60
2023-05-18T05:37:25.608Z,7.90
2023-05-18T05:39:53.731Z,7.60
2023-05-18T05:42:23.119Z,7.30
2023-05-18T05:44:49.877Z,7.30
2023-05-18T05:47:16.693Z,7.50
2023-05-18T05:49:43.832Z,7.60
2023-05-18T05:52:10.621Z,7.70
2023-05-18T05:57:16.771Z,8.00
2023-05-18T05:59:43.510Z,8.50
2023-05-18T06:02:10.354Z,8.90
2023-05-18T06:04:37.330Z,9.40
2023-05-18T06:07:06.969Z,10.10
2023-05-18T06:09:33.816Z,11.00
2023-05-18T06:12:00.580Z,11.60
2023-05-18T06:14:28.776Z,11.70
2023-05-18T06:16:55.844Z,11.50
2023-05-18T06:19:22.800Z,11.20
2023-05-18T06:21:49.842Z,11.40
2023-05-18T06:24:16.643Z,11.90
2023-05-18T06:26:43.463Z,12.60
2023-05-18T06:29:10.313Z,12.50
2023-05-18T06:31:38.500Z,12.60
2023-05-18T06:34:05.320Z,12.20
2023-05-18T06:36:32.100Z,12.20
2023-05-18T06:38:58.850Z,11.00
2023-05-18T06:41:28.082Z,10.60
2023-05-18T06:43:57.958Z,11.10
2023-05-18T06:46:24.997Z,11.10
2023-05-18T06:48:54.560Z,11.60
2023-05-18T06:51:21.429Z,11.50
2023-05-18T06:53:48.478Z,11.20
2023-05-18T06:56:15.249Z,11.40
2023-05-18T06:58:42.474Z,11.50
2023-05-18T07:01:09.464Z,11.10
2023-05-18T07:03:36.454Z,10.60
2023-05-18T07:06:05.262Z,10.20
2023-05-18T07:08:32.289Z,9.60
2023-05-18T07:10:59.152Z,9.90
2023-05-18T07:13:25.958Z,10.40
2023-05-18T07:15:52.851Z,10.50
2023-05-18T07:18:19.748Z,11.30
2023-05-18T07:20:46.562Z,11.80
2023-05-18T07:23:14.783Z,11.50
2023-05-18T07:25:41.661Z,11.20
2023-05-18T07:28:08.460Z,11.50
2023-05-18T07:30:35.269Z,11.60
2023-05-18T07:33:02.310Z,12.00
2023-05-18T07:35:29.346Z,11.70
2023-05-18T07:37:56.585Z,11.80
2023-05-18T07:40:24.841Z,11.40
2023-05-18T07:42:51.828Z,11.50
2023-05-18T07:45:18.747Z,11.30
2023-05-18T07:47:45.623Z,11.80
2023-05-18T07:50:12.471Z,12.20
2023-05-18T07:52:39.528Z,12.30
2023-05-18T07:55:07.274Z,12.40
2023-05-18T07:57:35.890Z,12.00
2023-05-18T08:00:03.494Z,11.40
2023-05-18T08:02:32.875Z,11.10
2023-05-18T08:05:00.621Z,10.90
2023-05-18T08:07:28.961Z,10.80
2023-05-18T08:09:56.060Z,10.50
2023-05-18T08:12:22.925Z,10.10
2023-05-18T08:14:51.093Z,10.20
2023-05-18T08:17:17.859Z,10.50
2023-05-18T08:19:44.626Z,10.60
2023-05-18T08:22:11.394Z,10.70
2023-05-18T08:24:38.189Z,10.80
2023-05-18T08:27:05.392Z,11.00
2023-05-18T08:29:32.189Z,11.30
2023-05-18T08:32:04.002Z,11.50
2023-05-18T08:34:30.887Z,11.90
2023-05-18T08:36:57.676Z,11.70
2023-05-18T08:39:24.485Z,11.60
2023-05-18T08:42:02.541Z,11.90
2023-05-18T08:44:34.384Z,12.20
2023-05-18T08:47:03.651Z,12.10
2023-05-18T08:49:31.781Z,12.00
2023-05-18T08:52:03.101Z,12.10
2023-05-18T08:54:33.178Z,11.90
2023-05-18T08:57:01.058Z,11.80
2023-05-18T08:59:32.939Z,11.80
2023-05-18T09:02:00.088Z,11.60
2023-05-18T09:04:28.386Z,11.80
2023-05-18T09:06:55.343Z,11.80
2023-05-18T09:09:23.999Z,11.90
2023-05-18T09:11:51.814Z,11.70
2023-05-18T09:14:18.998Z,11.70
2023-05-18T09:16:45.943Z,11.70
2023-05-18T09:19:12.799Z,11.90
2023-05-18T09:21:40.988Z,11.80
2023-05-18T09:24:11.066Z,11.80
2023-05-18T09:26:38.471Z,11.70
2023-05-18T09:29:15.953Z,12.10
2023-05-18T09:31:42.918Z,12.30
2023-05-18T09:34:10.310Z,12.90
2023-05-18T09:36:37.107Z,13.10
2023-05-18T09:39:10.226Z,13.30
2023-05-18T09:41:38.738Z,13.20
2023-05-18T09:44:05.702Z,13.20
2023-05-18T09:46:34.992Z,13.50
2023-05-18T09:49:04.145Z,13.40
2023-05-18T09:51:32.854Z,13.30
2023-05-18T09:53:59.614Z,13.60
2023-05-18T09:56:27.725Z,14.00
2023-05-18T09:58:54.630Z,13.50
2023-05-18T10:01:21.566Z,13.40
2023-05-18T10:03:52.418Z,13.10
2023-05-18T10:06:19.196Z,12.80
2023-05-18T10:08:49.581Z,12.50
2023-05-18T10:11:18.350Z,12.40
2023-05-18T10:13:46.830Z,12.60
2023-05-18T10:16:15.695Z,12.80
2023-05-18T10:18:42.528Z,12.70
2023-05-18T10:21:11.016Z,12.50
2023-05-18T10:23:40.183Z,13.00
2023-05-18T10:26:08.077Z,12.80
2023-05-18T10:28:38.841Z,12.80
2023-05-18T10:31:08.019Z,12.80
2023-05-18T10:33:36.693Z,12.80
2023-05-18T10:36:07.323Z,12.60
2023-05-18T10:38:36.740Z,12.40
2023-05-18T10:41:06.616Z,12.60
2023-05-18T10:43:34.130Z,12.70
2023-05-18T10:46:12.321Z,13.20
2023-05-18T10:48:41.798Z,13.70
2023-05-18T10:51:08.776Z,13.50
2023-05-18T10:53:36.559Z,13.90
2023-05-18T10:56:06.386Z,13.80
2023-05-18T10:58:35.234Z,13.70
2023-05-18T11:01:02.807Z,13.50
2023-05-18T11:03:33.006Z,13.20
2023-05-18T11:06:07.312Z,13.40
2023-05-18T11:08:34.842Z,13.50
2023-05-18T11:11:03.816Z,13.70
2023-05-18T11:13:32.245Z,13.90
2023-05-18T11:16:06.956Z,13.90
2023-05-18T11:18:40.908Z,13.80
2023-05-18T11:21:30.636Z,13.50
2023-05-18T11:24:18.881Z,13.40
2023-05-18T11:26:49.901Z,13.40
2023-05-18T11:29:18.914Z,13.60
2023-05-18T11:31:47.029Z,13.80
2023-05-18T11:34:44.352Z,13.90
2023-05-18T11:37:14.929Z,14.10
2023-05-18T11:39:59.474Z,14.40
2023-05-18T11:42:34.274Z,14.50
2023-05-18T11:45:06.891Z,14.50
2023-05-18T11:47:34.100Z,14.50
2023-05-18T11:50:04.920Z,14.80
2023-05-18T11:52:31.808Z,14.50
2023-05-18T11:55:00.281Z,14.50
2023-05-18T11:57:38.687Z,14.60
2023-05-18T12:00:07.738Z,14.40
2023-05-18T12:02:42.326Z,14.50
2023-05-18T12:05:11.131Z,14.70
2023-05-18T12:07:42.084Z,14.50
2023-05-18T12:10:10.221Z,14.70
2023-05-18T12:12:39.166Z,14.90
2023-05-18T12:15:07.072Z,14.90
2023-05-18T12:17:42.070Z,15.10
2023-05-18T12:20:13.786Z,15.10
2023-05-18T12:22:41.223Z,15.50
2023-05-18T12:25:15.096Z,14.90
2023-05-18T12:27:44.904Z,14.80
2023-05-18T12:30:17.141Z,15.20
2023-05-18T12:32:49.195Z,15.60
2023-05-18T12:35:17.599Z,15.00
2023-05-18T12:37:45.753Z,15.10
2023-05-18T12:40:14.927Z,14.60
2023-05-18T12:42:51.782Z,14.80
2023-05-18T12:45:19.539Z,14.60
2023-05-18T12:47:46.597Z,14.50
2023-05-18T12:50:13.459Z,14.30
2023-05-18T12:52:44.033Z,14.40
2023-05-18T12:55:19.534Z,14.70
2023-05-18T12:57:46.310Z,14.60
2023-05-18T13:00:15.126Z,14.80
2023-05-18T13:02:41.848Z,15.00
2023-05-18T13:05:10.761Z,14.90
2023-05-18T13:07:38.182Z,14.70
2023-05-18T13:10:11.650Z,14.50
2023-05-18T13:12:48.687Z,15.00
2023-05-18T13:15:17.362Z,15.10
2023-05-18T13:17:56.994Z,15.30
2023-05-18T13:20:24.128Z,15.40
2023-05-18T13:22:51.204Z,15.20
2023-05-18T13:25:22.295Z,15.10
2023-05-18T13:27:51.578Z,15.20
2023-05-18T13:30:18.572Z,14.60
2023-05-18T13:32:47.944Z,14.60
2023-05-18T13:35:17.798Z,14.60
2023-05-18T13:37:48.826Z,14.50
2023-05-18T13:40:17.334Z,14.50
2023-05-18T13:42:47.184Z,14.40
2023-05-18T13:45:30.597Z,14.50
2023-05-18T13:47:57.581Z,14.40
2023-05-18T13:50:24.894Z,14.30
2023-05-18T13:52:54.856Z,14.40
2023-05-18T13:55:21.925Z,14.00
2023-05-18T13:57:50.006Z,13.80
2023-05-18T14:00:17.525Z,13.60
2023-05-18T14:02:45.001Z,13.50
2023-05-18T14:05:12.402Z,13.60
2023-05-18T14:07:40.916Z,13.70
2023-05-18T14:10:11.561Z,13.50
2023-05-18T14:12:38.776Z,13.50
2023-05-18T14:15:08.488Z,13.50
2023-05-18T14:17:35.464Z,13.60
2023-05-18T14:20:03.186Z,13.70
2023-05-18T14:22:29.969Z,13.80
2023-05-18T14:25:04.107Z,14.10
2023-05-18T14:27:30.966Z,14.20
2023-05-18T14:29:57.782Z,14.40
2023-05-18T14:32:26.120Z,14.50
2023-05-18T14:34:52.948Z,14.60
2023-05-18T14:37:24.106Z,14.60
2023-05-18T14:39:50.872Z,14.80
2023-05-18T14:42:17.693Z,14.60
2023-05-18T14:44:44.496Z,14.60
2023-05-18T14:47:13.865Z,14.40
2023-05-18T14:49:42.096Z,14.40
2023-05-18T14:54:54.865Z,14.30
2023-05-18T14:57:22.394Z,14.20
2023-05-18T14:59:49.959Z,14.20
2023-05-18T15:02:17.180Z,13.90
2023-05-18T15:04:46.073Z,14.10
2023-05-18T15:07:14.417Z,14.00
2023-05-18T15:09:41.207Z,13.90
2023-05-18T15:12:10.558Z,14.00
2023-05-18T15:14:37.359Z,14.10
2023-05-18T15:17:04.535Z,14.10
2023-05-18T15:19:31.308Z,14.00
2023-05-18T15:21:59.439Z,14.10
2023-05-18T15:24:28.864Z,14.10
2023-05-18T15:26:55.854Z,14.20
2023-05-18T15:29:22.631Z,14.30
2023-05-18T15:31:49.580Z,14.20
2023-05-18T15:34:17.645Z,13.90
2023-05-18T15:36:44.496Z,13.80
2023-05-18T15:39:15.452Z,14.10
2023-05-18T15:41:42.243Z,14.00
2023-05-18T15:44:09.042Z,14.20
2023-05-18T15:46:36.880Z,14.40
2023-05-18T15:49:06.667Z,14.30
2023-05-18T15:51:36.683Z,14.30
2023-05-18T15:54:04.471Z,14.50
2023-05-18T15:56:32.764Z,14.80
2023-05-18T15:59:02.270Z,14.50
2023-05-18T16:01:31.738Z,14.50
2023-05-18T16:03:58.797Z,14.50
2023-05-18T16:06:25.970Z,14.50
2023-05-18T16:08:52.804Z,14.50
2023-05-18T16:11:19.838Z,14.50
2023-05-18T16:13:48.304Z,14.20
2023-05-18T16:16:17.850Z,14.00
2023-05-18T16:18:44.780Z,14.10
2023-05-18T16:21:11.559Z,14.10
2023-05-18T16:23:38.451Z,14.10
2023-05-18T16:26:05.429Z,14.10
2023-05-18T16:28:32.314Z,14.10
2023-05-18T16:31:00.793Z,13.80
2023-05-18T16:33:28.137Z,13.70
2023-05-18T16:35:55.157Z,13.60
2023-05-18T16:38:24.657Z,13.50
2023-05-18T16:40:54.157Z,13.50
2023-05-18T16:43:20.960Z,13.60
2023-05-18T16:45:50.686Z,13.60
2023-05-18T16:48:19.970Z,13.50
2023-05-18T16:50:47.048Z,13.30
2023-05-18T16:53:13.886Z,13.20
2023-05-18T16:55:40.741Z,13.20
2023-05-18T16:58:10.147Z,13.20
2023-05-18T17:00:37.000Z,13.30
2023-05-18T17:03:04.452Z,13.20
2023-05-18T17:05:32.635Z,13.20
2023-05-18T17:07:59.392Z,13.20
2023-05-18T17:10:29.256Z,13.10
2023-05-18T17:12:56.181Z,13.10
2023-05-18T17:15:22.940Z,13.10
2023-05-18T17:17:49.751Z,13.10
2023-05-18T17:20:16.562Z,13.20
2023-05-18T17:22:47.512Z,13.10
2023-05-18T17:25:14.346Z,13.20
2023-05-18T17:27:41.136Z,13.30
2023-05-18T17:30:08.989Z,13.30
2023-05-18T17:32:36.939Z,13.20
2023-05-18T17:35:04.484Z,13.20
2023-05-18T17:37:31.339Z,13.30
2023-05-18T17:39:59.455Z,13.50
2023-05-18T17:42:26.530Z,13.40
2023-05-18T17:44:53.281Z,13.20
2023-05-18T17:47:20.243Z,13.10
2023-05-18T17:49:47.217Z,13.10
2023-05-18T17:52:14.175Z,13.10
2023-05-18T17:54:41.018Z,13.20
2023-05-18T17:57:13.158Z,13.10
2023-05-18T17:59:40.057Z,13.20
2023-05-18T18:02:06.843Z,13.20
2023-05-18T18:04:42.825Z,13.10
2023-05-18T18:07:09.585Z,13.20
2023-05-18T18:09:36.449Z,13.00
2023-05-18T18:12:03.554Z,12.90
2023-05-18T18:14:31.780Z,12.70
2023-05-18T18:17:01.575Z,12.60
2023-05-18T18:19:28.534Z,12.60
2023-05-18T18:21:55.359Z,12.60
2023-05-18T18:24:22.124Z,12.50
2023-05-18T18:26:49.075Z,12.50
2023-05-18T18:29:15.893Z,12.50
2023-05-18T18:31:46.644Z,12.50
2023-05-18T18:34:13.523Z,12.50
2023-05-18T18:36:40.534Z,12.40
2023-05-18T18:39:07.298Z,12.30
2023-05-18T18:41:34.088Z,12.30
2023-05-18T18:44:00.838Z,12.20
2023-05-18T18:46:30.152Z,12.20
2023-05-18T18:49:00.610Z,12.10
2023-05-18T18:51:27.408Z,12.00
2023-05-18T18:53:54.220Z,11.90
2023-05-18T18:56:24.267Z,11.80
2023-05-18T18:58:51.272Z,11.80
2023-05-18T19:01:18.110Z,11.60
2023-05-18T19:03:51.035Z,11.60
2023-05-18T19:06:19.243Z,11.50
2023-05-18T19:08:48.956Z,11.30
2023-05-18T19:11:18.763Z,11.30
2023-05-18T19:13:45.536Z,11.10
2023-05-18T19:16:15.634Z,11.00
2023-05-18T19:18:45.552Z,11.00
2023-05-18T19:21:13.421Z,10.90
2023-05-18T19:23:41.612Z,10.80
2023-05-18T19:26:08.456Z,10.70
2023-05-18T19:28:37.734Z,10.50
2023-05-18T19:31:04.587Z,10.40
2023-05-18T19:33:33.528Z,10.30
2023-05-18T19:36:00.199Z,10.30
2023-05-18T19:38:28.382Z,10.10
2023-05-18T19:40:56.517Z,10.00
2023-05-18T19:43:25.914Z,9.90
2023-05-18T19:45:52.865Z,9.80
2023-05-18T19:48:19.735Z,9.70
2023-05-18T19:50:46.545Z,9.70
2023-05-18T19:53:13.352Z,9.60
2023-05-18T19:55:48.823Z,9.50
2023-05-18T19:58:17.149Z,9.50
2023-05-18T20:00:43.990Z,9.40
2023-05-18T20:03:10.891Z,9.30
2023-05-18T20:05:43.083Z,9.20
2023-05-18T20:08:09.853Z,9.10
2023-05-18T20:10:36.618Z,9.10
2023-05-18T20:13:05.185Z,9.00
2023-05-18T20:15:33.374Z,8.90
2023-05-18T20:18:04.546Z,8.90
2023-05-18T20:20:33.008Z,8.80
2023-05-18T20:23:00.572Z,8.80
2023-05-18T20:25:27.559Z,8.70
2023-05-18T20:27:54.759Z,8.70
2023-05-18T20:30:21.735Z,8.70
2023-05-18T20:32:50.449Z,8.60
2023-05-18T20:35:17.398Z,8.60
2023-05-18T20:37:44.178Z,8.50
2023-05-18T20:40:15.018Z,8.50
2023-05-18T20:42:41.825Z,8.40
2023-05-18T20:45:10.334Z,8.40
2023-05-18T20:47:37.177Z,8.30
2023-05-18T20:50:06.480Z,8.40
2023-05-18T20:52:33.267Z,8.30
2023-05-18T20:55:00.183Z,8.30
2023-05-18T20:57:27.116Z,8.20
2023-05-18T20:59:53.941Z,8.10
2023-05-18T21:02:20.787Z,8.10
2023-05-18T21:04:47.634Z,8.10
2023-05-18T21:07:18.777Z,7.90
2023-05-18T21:09:48.323Z,7.90
2023-05-18T21:12:19.480Z,7.90
2023-05-18T21:14:49.046Z,7.90
2023-05-18T21:17:19.473Z,7.80
2023-05-18T21:19:46.293Z,7.80
2023-05-18T21:22:15.591Z,7.90
2023-05-18T21:24:43.794Z,8.00
2023-05-18T21:27:10.805Z,8.10
2023-05-18T21:29:46.969Z,8.10
2023-05-18T21:32:13.820Z,8.10
2023-05-18T21:34:43.337Z,8.10
2023-05-18T21:37:10.721Z,8.10
2023-05-18T21:39:37.602Z,8.10
2023-05-18T21:42:06.268Z,8.10
2023-05-18T21:44:33.176Z,8.00
2023-05-18T21:47:02.811Z,8.00
2023-05-18T21:49:32.308Z,7.90
2023-05-18T21:51:59.098Z,7.90
2023-05-18T21:54:25.973Z,7.90
2023-05-18T21:56:52.865Z,7.90
2023-05-18T21:59:24.094Z,7.80
2023-05-18T22:01:50.823Z,7.70
2023-05-18T22:04:19.936Z,7.70
2023-05-18T22:06:49.174Z,7.70
2023-05-18T22:09:15.997Z,7.60
2023-05-18T22:11:42.769Z,7.50
2023-05-18T22:14:09.628Z,7.50
2023-05-18T22:16:37.812Z,7.40
2023-05-18T22:19:07.146Z,7.40
2023-05-18T22:21:33.930Z,7.30
2023-05-18T22:24:00.681Z,7.30
2023-05-18T22:26:29.817Z,7.20
2023-05-18T22:28:56.679Z,7.20
2023-05-18T22:31:24.883Z,7.20
2023-05-18T22:33:55.446Z,7.20
2023-05-18T22:36:24.232Z,7.10
2023-05-18T22:38:51.030Z,7.10
2023-05-18T22:41:18.976Z,7.10
2023-05-18T22:43:48.943Z,7.10
2023-05-18T22:46:15.875Z,7.00
2023-05-18T22:48:42.692Z,7.00
2023-05-18T22:51:10.999Z,7.00
2023-05-18T22:53:37.770Z,7.00
2023-05-18T22:56:07.805Z,6.90
2023-05-18T22:58:34.702Z,6.90
2023-05-18T23:01:02.041Z,6.90
2023-05-18T23:03:28.959Z,6.90
2023-05-18T23:05:58.699Z,6.80
2023-05-18T23:08:26.919Z,6.80
2023-05-18T23:10:53.741Z,6.70
2023-05-18T23:13:20.554Z,6.70
2023-05-18T23:15:48.053Z,6.70
2023-05-18T23:18:17.970Z,6.70
2023-05-18T23:20:44.709Z,6.70
2023-05-18T23:23:11.459Z,6.60
2023-05-18T23:25:39.679Z,6.60
2023-05-18T23:28:06.461Z,6.50
2023-05-18T23:30:33.409Z,6.50
2023-05-18T23:33:01.082Z,6.40
2023-05-18T23:35:28.765Z,6.50
2023-05-18T23:38:02.029Z,6.50
2023-05-18T23:40:33.297Z,6.40
2023-05-18T23:43:07.440Z,6.40
2023-05-18T23:45:34.906Z,6.40
2023-05-18T23:48:03.898Z,6.30
2023-05-18T23:50:31.326Z,6.30
2023-05-18T23:53:04.598Z,6.30
2023-05-18T23:55:38.094Z,6.20
2023-05-18T23:58:06.948Z,6.20
